createdAt,value
2018-12-29T00:00:32.191Z,69.63
2018-12-29T00:01:32.176Z,70.68
2018-12-29T00:02:32.165Z,71.62
2018-12-29T00:03:32.169Z,72.39
2018-12-29T00:04:32.161Z,73.33
2018-12-29T00:05:32.178Z,71.86
2018-12-29T00:06:32.133Z,73.02
2018-12-29T00:07:34.136Z,72.81
2018-12-29T00:08:32.100Z,69.42
2018-12-29T00:09:32.089Z,73.09
2018-12-29T00:10:32.118Z,72.04
2018-12-29T00:11:32.062Z,71.55
2018-12-29T00:12:32.074Z,71.23
2018-12-29T00:13:32.073Z,72.91
2018-12-29T00:14:32.045Z,73.26
2018-12-29T00:15:32.078Z,72.21
2018-12-29T00:16:32.035Z,72.21
2018-12-29T00:17:32.008Z,72.84
2018-12-29T00:18:32.000Z,73.05
2018-12-29T00:19:31.995Z,73.05
2018-12-29T00:20:31.972Z,72.42
2018-12-29T00:21:32.031Z,70.61
2018-12-29T00:22:31.945Z,71.06
2018-12-29T00:23:31.935Z,69.45
2018-12-29T00:24:31.946Z,67.36
2018-12-29T00:25:31.952Z,67.46
2018-12-29T00:26:31.952Z,70.18
2018-12-29T00:27:31.898Z,69.45
2018-12-29T00:28:31.881Z,66.07
2018-12-29T00:29:31.893Z,65.44
2018-12-29T00:30:31.902Z,65.44
2018-12-29T00:31:31.904Z,66.91
2018-12-29T00:32:31.844Z,69.00
2018-12-29T00:33:31.845Z,68.93
2018-12-29T00:34:31.822Z,68.09
2018-12-29T00:35:31.849Z,68.93
2018-12-29T00:36:31.811Z,67.43
2018-12-29T00:37:31.835Z,67.78
2018-12-29T00:38:31.775Z,68.93
2018-12-29T00:39:31.784Z,68.30
2018-12-29T00:40:31.777Z,67.54
2018-12-29T00:41:31.784Z,68.62
2018-12-29T00:42:31.737Z,67.46
2018-12-29T00:43:31.763Z,67.57
2018-12-29T00:44:31.711Z,69.27
2018-12-29T00:45:31.711Z,69.38
2018-12-29T00:46:31.711Z,69.04
2018-12-29T00:47:31.688Z,67.36
2018-12-29T00:48:31.716Z,64.40
2018-12-29T00:49:31.666Z,65.86
2018-12-29T00:50:31.693Z,67.88
2018-12-29T00:51:31.638Z,66.80
2018-12-29T00:52:31.643Z,67.85
2018-12-29T00:53:31.635Z,67.33
2018-12-29T00:54:31.677Z,66.80
2018-12-29T00:55:31.660Z,67.88
2018-12-29T00:56:31.587Z,69.04
2018-12-29T00:57:31.581Z,67.46
2018-12-29T00:58:31.595Z,67.88
2018-12-29T00:59:31.562Z,67.36
2018-12-29T01:00:31.552Z,65.86
2018-12-29T01:01:31.596Z,66.52
2018-12-29T01:02:31.518Z,66.94
2018-12-29T01:03:31.510Z,67.46
2018-12-29T01:04:31.521Z,67.91
2018-12-29T01:05:31.486Z,68.02
2018-12-29T01:06:31.485Z,67.81
2018-12-29T01:07:31.501Z,69.70
2018-12-29T01:08:31.471Z,68.96
2018-12-29T01:09:31.456Z,69.38
2018-12-29T01:10:31.481Z,69.59
2018-12-29T01:11:31.417Z,70.75
2018-12-29T01:12:31.409Z,71.61
2018-12-29T01:13:31.398Z,71.93
2018-12-29T01:14:31.417Z,70.98
2018-12-29T01:15:31.383Z,71.09
2018-12-29T01:16:31.406Z,69.20
2018-12-29T01:17:31.360Z,70.25
2018-12-29T01:18:31.345Z,69.73
2018-12-29T01:19:31.337Z,70.46
2018-12-29T01:20:31.396Z,71.20
2018-12-29T01:21:31.315Z,71.30
2018-12-29T01:22:31.353Z,72.24
2018-12-29T01:23:31.298Z,71.61
2018-12-29T01:24:31.282Z,72.24
2018-12-29T01:25:31.311Z,71.33
2018-12-29T01:26:31.258Z,70.15
2018-12-29T01:27:31.276Z,69.62
2018-12-29T01:28:31.281Z,67.42
2018-12-29T01:29:31.269Z,68.68
2018-12-29T01:30:31.279Z,67.49
2018-12-29T01:31:31.202Z,67.39
2018-12-29T01:32:31.223Z,69.10
2018-12-29T01:33:31.185Z,71.20
2018-12-29T01:34:31.179Z,71.61
2018-12-29T01:35:31.429Z,72.24
2018-12-29T01:36:31.180Z,72.69
2018-12-29T01:37:31.296Z,72.28
2018-12-29T01:38:31.142Z,71.44
2018-12-29T01:39:31.306Z,70.18
2018-12-29T01:40:31.108Z,69.73
2018-12-29T01:41:31.158Z,69.41
2018-12-29T01:42:31.220Z,69.41
2018-12-29T01:43:32.103Z,68.47
2018-12-29T01:44:31.130Z,68.05
2018-12-29T01:45:31.053Z,70.04
2018-12-29T01:46:31.838Z,70.56
2018-12-29T01:47:31.043Z,69.93
2018-12-29T01:48:31.018Z,71.41
2018-12-29T01:49:31.009Z,69.62
2018-12-29T01:50:31.033Z,69.41
2018-12-29T01:51:30.986Z,70.56
2018-12-29T01:52:31.013Z,71.51
2018-12-29T01:53:30.989Z,72.03
2018-12-29T01:54:30.999Z,72.14
2018-12-29T01:55:30.944Z,73.19
2018-12-29T01:56:30.939Z,72.66
2018-12-29T01:57:30.946Z,71.93
2018-12-29T01:58:30.911Z,70.78
2018-12-29T01:59:30.898Z,70.36
2018-12-29T02:00:30.930Z,69.93
2018-12-29T02:01:30.875Z,68.85
2018-12-29T02:02:30.884Z,69.83
2018-12-29T02:03:30.865Z,70.25
2018-12-29T02:04:30.848Z,69.97
2018-12-29T02:05:30.838Z,70.91
2018-12-29T02:06:30.888Z,71.75
2018-12-29T02:07:30.820Z,71.96
2018-12-29T02:08:30.797Z,71.26
2018-12-29T02:09:30.883Z,70.31
2018-12-29T02:10:30.777Z,69.23
2018-12-29T02:11:30.771Z,69.55
2018-12-29T02:12:30.799Z,69.34
2018-12-29T02:13:30.744Z,70.60
2018-12-29T02:14:30.735Z,69.34
2018-12-29T02:15:30.750Z,69.76
2018-12-29T02:16:30.717Z,70.70
2018-12-29T02:17:30.705Z,70.63
2018-12-29T02:18:30.730Z,70.70
2018-12-29T02:19:30.686Z,70.28
2018-12-29T02:20:30.680Z,70.70
2018-12-29T02:21:30.692Z,71.54
2018-12-29T02:22:30.655Z,71.15
2018-12-29T02:23:30.638Z,70.91
2018-12-29T02:24:30.713Z,70.28
2018-12-29T02:25:30.664Z,70.28
2018-12-29T02:26:30.602Z,70.39
2018-12-29T02:27:30.596Z,72.06
2018-12-29T02:28:30.595Z,73.36
2018-12-29T02:29:30.573Z,73.68
2018-12-29T02:30:30.604Z,73.36
2018-12-29T02:31:30.556Z,73.71
2018-12-29T02:32:30.548Z,72.24
2018-12-29T02:33:30.527Z,70.56
2018-12-29T02:34:30.538Z,70.63
2018-12-29T02:35:30.527Z,71.08
2018-12-29T02:36:30.553Z,71.40
2018-12-29T02:37:30.483Z,72.13
2018-12-29T02:38:30.473Z,71.71
2018-12-29T02:39:30.472Z,72.55
2018-12-29T02:40:30.478Z,72.45
2018-12-29T02:41:30.443Z,72.90
2018-12-29T02:42:30.465Z,72.03
2018-12-29T02:43:30.415Z,71.71
2018-12-29T02:44:30.417Z,71.92
2018-12-29T02:45:33.328Z,72.03
2018-12-29T02:46:30.449Z,71.71
2018-12-29T02:47:30.384Z,71.40
2018-12-29T02:48:30.361Z,70.87
2018-12-29T02:49:30.398Z,69.90
2018-12-29T02:50:30.365Z,70.73
2018-12-29T02:51:30.336Z,69.90
2018-12-29T02:52:30.358Z,69.06
2018-12-29T02:53:30.327Z,70.00
2018-12-29T02:54:30.294Z,69.90
2018-12-29T02:55:30.282Z,69.79
2018-12-29T02:56:30.286Z,70.53
2018-12-29T02:57:30.265Z,71.29
2018-12-29T02:58:30.301Z,72.10
2018-12-29T02:59:30.259Z,71.81
2018-12-29T03:00:30.233Z,72.13
2018-12-29T03:01:30.226Z,72.45
2018-12-29T03:02:30.210Z,72.03
2018-12-29T03:03:30.241Z,71.19
2018-12-29T03:04:30.190Z,71.78
2018-12-29T03:05:30.198Z,71.89
2018-12-29T03:06:30.170Z,71.71
2018-12-29T03:07:30.301Z,71.08
2018-12-29T03:08:30.174Z,71.26
2018-12-29T03:09:30.182Z,70.31
2018-12-29T03:10:30.127Z,71.05
2018-12-29T03:11:30.127Z,70.42
2018-12-29T03:12:30.103Z,71.05
2018-12-29T03:13:30.092Z,69.68
2018-12-29T03:14:30.094Z,69.68
2018-12-29T03:15:30.135Z,70.21
2018-12-29T03:16:30.057Z,69.82
2018-12-29T03:17:30.040Z,69.82
2018-12-29T03:18:30.050Z,69.26
2018-12-29T03:19:30.028Z,69.06
2018-12-29T03:20:30.034Z,68.01
2018-12-29T03:21:30.055Z,67.55
2018-12-29T03:22:29.991Z,68.01
2018-12-29T03:23:29.990Z,68.92
2018-12-29T03:24:29.965Z,69.48
2018-12-29T03:25:29.966Z,69.68
2018-12-29T03:26:29.977Z,69.58
2018-12-29T03:27:29.980Z,68.74
2018-12-29T03:28:29.940Z,69.68
2018-12-29T03:29:29.924Z,69.68
2018-12-29T03:30:29.901Z,67.48
2018-12-29T03:31:29.917Z,66.72
2018-12-29T03:32:29.912Z,66.61
2018-12-29T03:33:29.904Z,67.66
2018-12-29T03:34:29.870Z,69.45
2018-12-29T03:35:29.847Z,69.86
2018-12-29T03:36:29.840Z,71.65
2018-12-29T03:37:29.846Z,71.23
2018-12-29T03:38:29.841Z,71.78
2018-12-29T03:39:29.852Z,70.81
2018-12-29T03:40:29.798Z,70.60
2018-12-29T03:41:29.783Z,70.60
2018-12-29T03:42:29.785Z,71.26
2018-12-29T03:43:29.771Z,71.58
2018-12-29T03:44:29.755Z,70.21
2018-12-29T03:45:29.812Z,67.03
2018-12-29T03:46:29.728Z,66.47
2018-12-29T03:47:29.719Z,67.63
2018-12-29T03:48:29.749Z,68.92
2018-12-29T03:49:29.710Z,69.23
2018-12-29T03:50:29.684Z,68.82
2018-12-29T03:51:29.680Z,70.31
2018-12-29T03:52:29.688Z,69.90
2018-12-29T03:53:29.708Z,70.53
2018-12-29T03:54:29.684Z,69.90
2018-12-29T03:55:29.643Z,71.15
2018-12-29T03:56:29.618Z,70.21
2018-12-29T03:57:29.606Z,70.31
2018-12-29T03:58:29.620Z,71.26
2018-12-29T03:59:29.591Z,71.05
2018-12-29T04:00:29.627Z,70.00
2018-12-29T04:01:29.573Z,68.60
2018-12-29T04:02:29.556Z,68.95
2018-12-29T04:03:29.547Z,69.06
2018-12-29T04:04:29.559Z,69.37
2018-12-29T04:05:29.530Z,70.42
2018-12-29T04:06:29.554Z,68.95
2018-12-29T04:07:29.537Z,69.16
2018-12-29T04:08:29.487Z,69.26
2018-12-29T04:09:29.479Z,69.16
2018-12-29T04:10:29.478Z,69.79
2018-12-29T04:11:29.464Z,70.73
2018-12-29T04:12:29.486Z,70.95
2018-12-29T04:13:29.435Z,68.74
2018-12-29T04:14:29.425Z,66.85
2018-12-29T04:15:29.419Z,66.93
2018-12-29T04:16:29.422Z,70.10
2018-12-29T04:17:29.388Z,71.26
2018-12-29T04:18:29.427Z,71.78
2018-12-29T04:19:29.366Z,72.52
2018-12-29T04:20:29.410Z,72.86
2018-12-29T04:21:29.348Z,72.31
2018-12-29T04:22:29.350Z,72.34
2018-12-29T04:23:29.341Z,71.92
2018-12-29T04:24:29.319Z,72.03
2018-12-29T04:25:29.308Z,70.87
2018-12-29T04:26:29.334Z,70.45
2018-12-29T04:27:29.293Z,70.24
2018-12-29T04:28:29.269Z,69.19
2018-12-29T04:29:29.259Z,69.01
2018-12-29T04:30:29.313Z,69.82
2018-12-29T04:31:29.260Z,70.28
2018-12-29T04:32:29.231Z,70.06
2018-12-29T04:33:29.219Z,68.80
2018-12-29T04:34:29.208Z,68.77
2018-12-29T04:35:29.204Z,67.72
2018-12-29T04:36:29.228Z,67.72
2018-12-29T04:37:29.184Z,67.61
2018-12-29T04:38:29.163Z,68.14
2018-12-29T04:39:29.155Z,67.72
2018-12-29T04:40:29.139Z,67.83
2018-12-29T04:41:29.134Z,66.88
2018-12-29T04:42:29.166Z,67.09
2018-12-29T04:43:29.137Z,67.61
2018-12-29T04:44:29.108Z,67.80
2018-12-29T04:45:29.088Z,68.14
2018-12-29T04:46:29.081Z,68.25
2018-12-29T04:47:29.067Z,67.61
2018-12-29T04:48:29.098Z,68.35
2018-12-29T04:49:29.046Z,68.46
2018-12-29T04:50:29.042Z,68.35
2018-12-29T04:51:29.019Z,69.30
2018-12-29T04:52:29.007Z,69.58
2018-12-29T04:53:29.002Z,69.93
2018-12-29T04:54:29.055Z,70.95
2018-12-29T04:55:28.979Z,71.61
2018-12-29T04:56:29.023Z,71.92
2018-12-29T04:57:28.981Z,72.03
2018-12-29T04:58:28.954Z,71.50
2018-12-29T04:59:28.978Z,67.58
2018-12-29T05:00:28.953Z,66.12
2018-12-29T05:01:28.917Z,69.37
2018-12-29T05:02:28.902Z,70.31
2018-12-29T05:03:28.905Z,70.87
2018-12-29T05:04:28.882Z,70.45
2018-12-29T05:05:28.910Z,71.29
2018-12-29T05:06:28.875Z,70.76
2018-12-29T05:07:28.847Z,71.40
2018-12-29T05:08:28.846Z,70.66
2018-12-29T05:09:28.831Z,67.38
2018-12-29T05:10:28.822Z,66.22
2018-12-29T05:11:28.841Z,67.30
2018-12-29T05:12:28.791Z,68.14
2018-12-29T05:13:28.782Z,66.88
2018-12-29T05:14:28.782Z,68.14
2018-12-29T05:15:28.766Z,69.75
2018-12-29T05:16:28.826Z,69.43
2018-12-29T05:17:28.735Z,68.38
2018-12-29T05:18:28.729Z,69.64
2018-12-29T05:19:28.760Z,70.48
2018-12-29T05:20:28.704Z,69.96
2018-12-29T05:21:28.692Z,70.09
2018-12-29T05:22:28.696Z,69.64
2018-12-29T05:23:28.672Z,70.28
2018-12-29T05:24:28.666Z,71.75
2018-12-29T05:25:28.691Z,72.06
2018-12-29T05:26:28.637Z,71.53
2018-12-29T05:27:28.625Z,70.69
2018-12-29T05:28:28.641Z,69.01
2018-12-29T05:29:28.661Z,67.61
2018-12-29T05:30:28.637Z,67.09
2018-12-29T05:31:28.585Z,67.30
2018-12-29T05:32:28.570Z,67.20
2018-12-29T05:33:28.565Z,67.09
2018-12-29T05:34:28.580Z,67.51
2018-12-29T05:35:28.582Z,67.09
2018-12-29T05:36:28.531Z,68.46
2018-12-29T05:37:28.519Z,70.17
2018-12-29T05:38:28.509Z,69.19
2018-12-29T05:39:28.499Z,69.40
2018-12-29T05:40:28.511Z,71.11
2018-12-29T05:41:28.533Z,72.06
2018-12-29T05:42:28.465Z,72.06
2018-12-29T05:43:28.453Z,71.53
2018-12-29T05:44:28.445Z,71.43
2018-12-29T05:45:28.444Z,71.53
2018-12-29T05:46:28.434Z,71.95
2018-12-29T05:47:28.472Z,71.53
2018-12-29T05:48:28.402Z,71.40
2018-12-29T05:49:28.389Z,70.35
2018-12-29T05:50:28.380Z,69.71
2018-12-29T05:51:28.367Z,68.56
2018-12-29T05:52:28.366Z,66.78
2018-12-29T05:53:28.396Z,69.51
2018-12-29T05:54:28.339Z,71.29
2018-12-29T05:55:28.328Z,71.08
2018-12-29T05:56:28.315Z,70.59
2018-12-29T05:57:28.307Z,69.75
2018-12-29T05:58:28.301Z,69.71
2018-12-29T05:59:28.352Z,71.33
2018-12-29T06:00:28.272Z,71.43
2018-12-29T06:01:28.262Z,70.59
2018-12-29T06:02:28.249Z,70.90
2018-12-29T06:03:28.240Z,69.93
2018-12-29T06:04:28.235Z,69.51
2018-12-29T06:05:28.282Z,69.30
2018-12-29T06:06:28.208Z,68.56
2018-12-29T06:07:28.201Z,68.25
2018-12-29T06:08:28.187Z,67.61
2018-12-29T06:09:28.176Z,69.01
2018-12-29T06:10:28.186Z,69.61
2018-12-29T06:11:28.212Z,70.28
2018-12-29T06:12:28.146Z,68.46
2018-12-29T06:13:28.131Z,66.78
2018-12-29T06:14:28.122Z,67.09
2018-12-29T06:15:28.115Z,68.25
2018-12-29T06:16:28.160Z,69.30
2018-12-29T06:17:28.148Z,68.66
2018-12-29T06:18:28.100Z,66.56
2018-12-29T06:19:28.068Z,68.98
2018-12-29T06:20:28.061Z,69.19
2018-12-29T06:21:28.050Z,67.83
2018-12-29T06:22:28.035Z,67.72
2018-12-29T06:23:28.069Z,68.35
2018-12-29T06:24:28.042Z,69.61
2018-12-29T06:25:28.008Z,69.51
2018-12-29T06:26:28.003Z,68.98
2018-12-29T06:27:27.983Z,69.61
2018-12-29T06:28:27.977Z,70.90
2018-12-29T06:29:28.008Z,71.01
2018-12-29T06:30:27.967Z,70.28
2018-12-29T06:31:27.941Z,71.01
2018-12-29T06:32:27.928Z,70.28
2018-12-29T06:33:27.918Z,70.17
2018-12-29T06:34:27.918Z,69.12
2018-12-29T06:35:27.934Z,68.49
2018-12-29T06:36:27.910Z,68.38
2018-12-29T06:37:27.879Z,68.28
2018-12-29T06:38:27.867Z,68.91
2018-12-29T06:39:27.855Z,70.28
2018-12-29T06:40:27.883Z,70.17
2018-12-29T06:41:27.833Z,67.54
2018-12-29T06:42:27.842Z,67.51
2018-12-29T06:43:27.817Z,68.35
2018-12-29T06:44:27.812Z,67.51
2018-12-29T06:45:27.799Z,67.30
2018-12-29T06:46:34.745Z,65.41
2018-12-29T06:47:28.771Z,64.75
2018-12-29T06:48:27.783Z,65.80
2018-12-29T06:49:27.757Z,65.83
2018-12-29T06:50:27.741Z,64.43
2018-12-29T06:51:27.733Z,65.62
2018-12-29T06:52:27.762Z,68.14
2018-12-29T06:53:27.711Z,67.76
2018-12-29T06:54:27.705Z,68.07
2018-12-29T06:55:27.750Z,67.65
2018-12-29T06:56:27.715Z,68.49
2018-12-29T06:57:27.662Z,68.59
2018-12-29T06:58:27.652Z,69.01
2018-12-29T06:59:27.647Z,68.70
2018-12-29T07:00:27.637Z,68.59
2018-12-29T07:01:27.650Z,69.33
2018-12-29T07:02:27.649Z,69.12
2018-12-29T07:03:27.657Z,68.91
2018-12-29T07:04:27.598Z,69.33
2018-12-29T07:05:27.608Z,68.28
2018-12-29T07:06:27.575Z,67.54
2018-12-29T07:07:27.565Z,67.33
2018-12-29T07:08:27.554Z,66.56
2018-12-29T07:09:27.592Z,67.96
2018-12-29T07:10:27.585Z,65.94
2018-12-29T07:11:27.521Z,65.62
2018-12-29T07:12:27.519Z,65.73
2018-12-29T07:13:27.516Z,66.01
2018-12-29T07:14:27.489Z,66.75
2018-12-29T07:15:27.516Z,66.36
2018-12-29T07:16:27.499Z,66.67
2018-12-29T07:17:27.455Z,67.51
2018-12-29T07:18:27.443Z,68.25
2018-12-29T07:19:27.429Z,69.19
2018-12-29T07:20:27.428Z,68.04
2018-12-29T07:21:27.466Z,66.53
2018-12-29T07:22:27.411Z,65.38
2018-12-29T07:23:27.393Z,66.22
2018-12-29T07:24:27.380Z,67.77
2018-12-29T07:25:27.395Z,67.48
2018-12-29T07:26:27.445Z,65.56
2018-12-29T07:27:27.463Z,66.19
2018-12-29T07:28:27.342Z,65.67
2018-12-29T07:29:27.346Z,65.67
2018-12-29T07:30:27.328Z,66.27
2018-12-29T07:31:27.304Z,66.06
2018-12-29T07:32:27.334Z,65.84
2018-12-29T07:33:27.335Z,64.69
2018-12-29T07:34:27.280Z,64.06
2018-12-29T07:35:27.306Z,63.62
2018-12-29T07:36:27.273Z,64.77
2018-12-29T07:37:27.420Z,65.95
2018-12-29T07:38:27.264Z,67.91
2018-12-29T07:39:27.275Z,67.74
2018-12-29T07:40:27.204Z,66.58
2018-12-29T07:41:27.186Z,64.69
2018-12-29T07:42:27.215Z,64.38
2018-12-29T07:43:27.215Z,66.16
2018-12-29T07:44:27.239Z,65.74
2018-12-29T07:45:27.171Z,64.06
2018-12-29T07:46:27.194Z,65.11
2018-12-29T07:47:27.187Z,65.25
2018-12-29T07:48:27.149Z,64.94
2018-12-29T07:49:27.114Z,64.41
2018-12-29T07:50:27.099Z,64.43
2018-12-29T07:51:27.085Z,65.07
2018-12-29T07:52:27.114Z,63.67
2018-12-29T07:53:27.060Z,63.67
2018-12-29T07:54:27.051Z,63.89
2018-12-29T07:55:27.041Z,62.97
2018-12-29T07:56:27.043Z,62.10
2018-12-29T07:57:27.021Z,60.29
2018-12-29T07:58:27.064Z,61.97
2018-12-29T07:59:27.003Z,61.68
2018-12-29T08:00:26.982Z,63.04
2018-12-29T08:01:26.994Z,63.67
2018-12-29T08:02:27.031Z,64.65
2018-12-29T08:03:26.954Z,63.60
2018-12-29T08:04:26.946Z,63.39
2018-12-29T08:05:26.933Z,61.36
2018-12-29T08:06:26.925Z,62.84
2018-12-29T08:07:26.973Z,64.51
2018-12-29T08:08:26.938Z,62.65
2018-12-29T08:09:26.901Z,60.74
2018-12-29T08:10:26.877Z,61.34
2018-12-29T08:11:26.976Z,63.78
2018-12-29T08:12:26.922Z,65.25
2018-12-29T08:13:27.029Z,65.17
2018-12-29T08:14:26.832Z,65.98
2018-12-29T08:15:26.827Z,66.53
2018-12-29T08:16:26.823Z,66.43
2018-12-29T08:17:26.798Z,65.28
2018-12-29T08:18:26.807Z,66.01
2018-12-29T08:19:26.874Z,65.98
2018-12-29T08:20:26.767Z,65.56
2018-12-29T08:21:26.750Z,65.46
2018-12-29T08:22:26.779Z,64.41
2018-12-29T08:23:26.755Z,64.94
2018-12-29T08:24:26.742Z,64.83
2018-12-29T08:25:26.766Z,65.67
2018-12-29T08:26:26.695Z,64.41
2018-12-29T08:27:26.718Z,64.83
2018-12-29T08:28:26.677Z,63.43
2018-12-29T08:29:26.662Z,63.65
2018-12-29T08:30:26.684Z,64.48
2018-12-29T08:31:26.736Z,64.90
2018-12-29T08:32:26.700Z,63.85
2018-12-29T08:33:26.636Z,64.90
2018-12-29T08:34:26.621Z,62.81
2018-12-29T08:35:26.600Z,64.38
2018-12-29T08:36:26.612Z,63.65
2018-12-29T08:37:26.594Z,64.90
2018-12-29T08:38:26.612Z,63.40
2018-12-29T08:39:26.601Z,63.09
2018-12-29T08:40:26.605Z,63.62
2018-12-29T08:41:26.565Z,61.73
2018-12-29T08:42:26.525Z,62.33
2018-12-29T08:43:26.532Z,64.45
2018-12-29T08:44:26.532Z,65.92
2018-12-29T08:45:26.527Z,65.50
2018-12-29T08:46:26.591Z,63.09
2018-12-29T08:47:26.471Z,62.26
2018-12-29T08:48:26.490Z,63.51
2018-12-29T08:49:26.466Z,62.88
2018-12-29T08:50:26.448Z,63.40
2018-12-29T08:51:26.437Z,63.20
2018-12-29T08:52:26.482Z,64.04
2018-12-29T08:53:26.402Z,64.04
2018-12-29T08:54:26.422Z,60.89
2018-12-29T08:55:26.400Z,61.91
2018-12-29T08:56:26.369Z,63.93
2018-12-29T08:57:26.439Z,63.62
2018-12-29T08:58:26.357Z,63.51
2018-12-29T08:59:26.347Z,60.78
2018-12-29T09:00:26.327Z,62.67
2018-12-29T09:01:26.328Z,63.93
2018-12-29T09:02:26.328Z,65.08
2018-12-29T09:03:26.356Z,64.04
2018-12-29T09:04:26.310Z,62.99
2018-12-29T09:05:26.291Z,59.53
2018-12-29T09:06:26.263Z,58.33
2018-12-29T09:07:28.452Z,60.34
2018-12-29T09:08:26.232Z,59.92
2018-12-29T09:09:26.265Z,60.03
2018-12-29T09:10:26.229Z,59.61
2018-12-29T09:11:26.198Z,57.72
2018-12-29T09:12:26.211Z,58.33
2018-12-29T09:13:26.228Z,58.56
2018-12-29T09:14:26.170Z,59.89
2018-12-29T09:15:37.232Z,62.36
2018-12-29T09:16:26.175Z,62.36
2018-12-29T09:17:27.678Z,60.26
2018-12-29T09:18:27.162Z,59.71
2018-12-29T09:19:27.819Z,59.81
2018-12-29T09:20:26.345Z,61.10
2018-12-29T09:21:27.736Z,61.73
2018-12-29T09:22:28.040Z,61.31
2018-12-29T09:23:27.179Z,61.18
2018-12-29T09:24:26.126Z,61.63
2018-12-29T09:25:26.159Z,61.41
2018-12-29T09:26:26.102Z,60.26
2018-12-29T09:27:26.220Z,58.80
2018-12-29T09:28:26.084Z,57.72
2018-12-29T09:29:26.044Z,58.77
2018-12-29T09:30:26.140Z,58.25
2018-12-29T09:31:26.022Z,58.66
2018-12-29T09:32:26.108Z,58.87
2018-12-29T09:33:26.018Z,59.69
2018-12-29T09:34:25.978Z,60.03
2018-12-29T09:35:26.010Z,58.66
2018-12-29T09:36:26.006Z,58.01
2018-12-29T09:37:26.031Z,55.71
2018-12-29T09:38:25.967Z,54.66
2018-12-29T09:39:25.934Z,54.00
2018-12-29T09:40:25.905Z,56.02
2018-12-29T09:41:25.921Z,54.13
2018-12-29T09:42:25.933Z,54.11
2018-12-29T09:43:25.935Z,53.27
2018-12-29T09:44:25.949Z,54.00
2018-12-29T09:45:26.110Z,53.04
2018-12-29T09:46:25.839Z,53.45
2018-12-29T09:47:25.906Z,52.39
2018-12-29T09:48:25.809Z,51.06
2018-12-29T09:49:26.643Z,49.18
2018-12-29T09:50:25.850Z,47.58
2018-12-29T09:51:26.069Z,44.43
2018-12-29T09:52:30.811Z,44.06
2018-12-29T09:53:25.932Z,41.61
2018-12-29T09:54:25.854Z,41.47
2018-12-29T09:55:25.783Z,39.26
2018-12-29T09:56:25.809Z,41.38
2018-12-29T09:57:25.831Z,40.41
2018-12-29T09:58:25.767Z,36.49
2018-12-29T09:59:25.759Z,36.83
2018-12-29T10:00:25.698Z,38.01
2018-12-29T10:01:25.696Z,38.89
2018-12-29T10:02:25.732Z,39.79
2018-12-29T10:03:25.731Z,38.87
2018-12-29T10:04:25.707Z,38.68
2018-12-29T10:05:25.644Z,38.39
2018-12-29T10:06:25.668Z,38.26
2018-12-29T10:07:25.626Z,37.30
2018-12-29T10:08:25.670Z,38.43
2018-12-29T10:09:25.601Z,38.45
2018-12-29T10:10:25.624Z,40.35
2018-12-29T10:11:25.582Z,41.09
2018-12-29T10:12:25.604Z,42.44
2018-12-29T10:13:25.587Z,42.25
2018-12-29T10:14:25.575Z,42.25
2018-12-29T10:15:25.578Z,42.85
2018-12-29T10:16:25.503Z,43.77
2018-12-29T10:17:27.143Z,42.50
2018-12-29T10:18:25.493Z,40.73
2018-12-29T10:19:25.518Z,40.62
2018-12-29T10:20:25.523Z,38.97
2018-12-29T10:21:25.662Z,40.52
2018-12-29T10:22:25.545Z,38.75
2018-12-29T10:23:25.482Z,38.75
2018-12-29T10:24:25.491Z,40.88
2018-12-29T10:25:25.502Z,39.28
2018-12-29T10:26:25.753Z,38.90
2018-12-29T10:27:25.427Z,38.57
2018-12-29T10:28:25.411Z,38.97
2018-12-29T10:29:25.384Z,39.45
2018-12-29T10:30:25.432Z,39.66
2018-12-29T10:31:25.744Z,38.28
2018-12-29T10:32:25.857Z,37.54
2018-12-29T10:33:25.327Z,38.37
2018-12-29T10:34:25.320Z,37.98
2018-12-29T10:35:25.376Z,35.62
2018-12-29T10:36:26.033Z,35.44
2018-12-29T10:37:25.293Z,36.13
2018-12-29T10:38:25.323Z,37.66
2018-12-29T10:39:25.350Z,37.15
2018-12-29T10:40:25.894Z,36.98
2018-12-29T10:41:25.329Z,37.78
2018-12-29T10:42:25.251Z,38.60
2018-12-29T10:43:25.367Z,37.18
2018-12-29T10:44:25.249Z,39.07
2018-12-29T10:45:25.241Z,38.54
2018-12-29T10:46:25.262Z,38.21
2018-12-29T10:47:25.193Z,37.87
2018-12-29T10:48:25.184Z,36.98
2018-12-29T10:49:25.194Z,38.26
2018-12-29T10:50:25.205Z,38.07
2018-12-29T10:51:25.194Z,38.18
2018-12-29T10:52:25.129Z,39.91
2018-12-29T10:53:25.116Z,37.34
2018-12-29T10:54:25.115Z,39.45
2018-12-29T10:55:25.138Z,37.23
2018-12-29T10:56:25.120Z,38.40
2018-12-29T10:57:25.730Z,38.52
2018-12-29T10:58:25.258Z,38.32
2018-12-29T10:59:25.043Z,38.49
2018-12-29T11:00:25.087Z,38.24
2018-12-29T11:01:25.026Z,39.14
2018-12-29T11:02:25.056Z,36.44
2018-12-29T11:03:25.069Z,38.48
2018-12-29T11:04:25.027Z,37.87
2018-12-29T11:05:25.048Z,38.17
2018-12-29T11:06:24.962Z,38.67
2018-12-29T11:07:24.998Z,38.28
2018-12-29T11:08:24.945Z,38.00
2018-12-29T11:09:24.932Z,39.14
2018-12-29T11:10:25.169Z,38.62
2018-12-29T11:11:24.962Z,39.05
2018-12-29T11:12:24.959Z,36.75
2018-12-29T11:13:24.995Z,35.81
2018-12-29T11:14:25.270Z,36.75
2018-12-29T11:15:24.963Z,37.47
2018-12-29T11:16:24.943Z,37.98
2018-12-29T11:17:24.916Z,37.37
2018-12-29T11:18:24.908Z,37.16
2018-12-29T11:19:24.957Z,38.24
2018-12-29T11:20:24.894Z,36.29
2018-12-29T11:21:24.807Z,36.11
2018-12-29T11:22:24.856Z,36.13
2018-12-29T11:23:24.850Z,36.75
2018-12-29T11:24:26.899Z,36.30
2018-12-29T11:25:24.919Z,35.67
2018-12-29T11:26:24.797Z,35.35
2018-12-29T11:27:24.795Z,34.73
2018-12-29T11:28:24.744Z,35.35
2018-12-29T11:29:24.916Z,35.57
2018-12-29T11:30:24.870Z,36.49
2018-12-29T11:31:24.784Z,37.35
2018-12-29T11:32:24.705Z,38.71
2018-12-29T11:33:24.763Z,38.81
2018-12-29T11:34:24.860Z,39.73
2018-12-29T11:35:28.774Z,38.17
2018-12-29T11:36:25.736Z,37.08
2018-12-29T11:37:25.706Z,38.54
2018-12-29T11:38:24.643Z,39.15
2018-12-29T11:39:25.158Z,38.02
2018-12-29T11:40:24.947Z,38.86
2018-12-29T11:41:24.677Z,39.29
2018-12-29T11:42:25.209Z,40.31
2018-12-29T11:43:24.631Z,39.87
2018-12-29T11:44:24.654Z,38.35
2018-12-29T11:45:27.690Z,37.92
2018-12-29T11:46:24.710Z,38.95
2018-12-29T11:47:24.652Z,38.45
2018-12-29T11:48:25.233Z,39.38
2018-12-29T11:49:26.351Z,40.82
2018-12-29T11:50:24.609Z,40.00
2018-12-29T11:51:24.671Z,40.20
2018-12-29T11:52:24.595Z,40.61
2018-12-29T11:53:24.625Z,40.43
2018-12-29T11:54:25.330Z,40.20
2018-12-29T11:55:24.523Z,39.36
2018-12-29T11:56:24.655Z,40.58
2018-12-29T11:57:24.495Z,40.15
2018-12-29T11:58:24.532Z,39.98
2018-12-29T11:59:24.427Z,41.97
2018-12-29T12:00:24.434Z,41.85
2018-12-29T12:01:24.547Z,41.87
2018-12-29T12:02:24.838Z,42.24
2018-12-29T12:03:24.777Z,41.20
2018-12-29T12:04:25.210Z,42.06
2018-12-29T12:05:25.212Z,42.39
2018-12-29T12:06:24.452Z,42.18
2018-12-29T12:07:24.470Z,42.61
2018-12-29T12:08:25.545Z,41.58
2018-12-29T12:09:25.272Z,42.20
2018-12-29T12:10:24.507Z,43.54
2018-12-29T12:11:24.376Z,44.37
2018-12-29T12:12:25.392Z,43.65
2018-12-29T12:13:24.522Z,44.16
2018-12-29T12:14:25.156Z,43.13
2018-12-29T12:15:24.402Z,42.82
2018-12-29T12:16:24.474Z,42.93
2018-12-29T12:17:25.283Z,42.39
2018-12-29T12:18:24.327Z,43.71
2018-12-29T12:19:24.288Z,42.18
2018-12-29T12:20:24.823Z,43.73
2018-12-29T12:21:24.327Z,43.11
2018-12-29T12:22:24.242Z,42.18
2018-12-29T12:23:24.222Z,43.54
2018-12-29T12:24:24.256Z,45.32
2018-12-29T12:25:24.187Z,45.67
2018-12-29T12:26:24.110Z,46.19
2018-12-29T12:27:24.184Z,46.11
2018-12-29T12:28:24.650Z,47.45
2018-12-29T12:29:24.250Z,47.97
2018-12-29T12:30:24.102Z,46.08
2018-12-29T12:31:24.177Z,45.96
2018-12-29T12:32:24.125Z,45.65
2018-12-29T12:33:24.088Z,47.55
2018-12-29T12:34:24.142Z,47.45
2018-12-29T12:35:24.101Z,47.76
2018-12-29T12:36:24.293Z,47.86
2018-12-29T12:37:24.050Z,48.09
2018-12-29T12:38:24.032Z,47.53
2018-12-29T12:39:23.992Z,47.84
2018-12-29T12:40:24.003Z,47.69
2018-12-29T12:41:24.043Z,46.78
2018-12-29T12:42:24.063Z,47.22
2018-12-29T12:43:23.962Z,47.55
2018-12-29T12:44:24.024Z,46.68
2018-12-29T12:45:23.956Z,47.42
2018-12-29T12:46:23.905Z,46.11
2018-12-29T12:47:23.924Z,47.78
2018-12-29T12:48:23.961Z,49.04
2018-12-29T12:49:23.985Z,47.60
2018-12-29T12:50:23.868Z,48.01
2018-12-29T12:51:24.681Z,47.72
2018-12-29T12:52:23.988Z,47.91